createdAt,value
2023-10-10T00:01:45.943Z,102345.66
2023-10-10T00:04:13.868Z,102334.75
2023-10-10T00:06:41.840Z,102329.03
2023-10-10T00:09:12.201Z,102333.09
2023-10-10T00:11:46.992Z,102330.13
2023-10-10T00:14:20.318Z,102331.50
2023-10-10T00:16:56.232Z,102324.91
2023-10-10T00:19:26.300Z,102320.59
2023-10-10T00:21:53.549Z,102329.41
2023-10-10T00:24:31.975Z,102316.00
2023-10-10T00:27:00.669Z,102314.88
2023-10-10T00:29:28.287Z,102316.69
2023-10-10T00:32:06.780Z,102319.56
2023-10-10T00:34:35.714Z,102321.88
2023-10-10T00:37:08.995Z,102312.81
2023-10-10T00:39:38.028Z,102319.00
2023-10-10T00:42:09.308Z,102317.28
2023-10-10T00:44:39.662Z,102312.19
2023-10-10T00:47:22.988Z,102315.38
2023-10-10T00:49:51.379Z,102306.59
2023-10-10T00:52:19.123Z,102307.09
2023-10-10T00:54:46.972Z,102309.31
2023-10-10T00:57:19.100Z,102309.56
2023-10-10T00:59:47.089Z,102306.69
2023-10-10T01:02:16.045Z,102302.56
2023-10-10T01:04:50.493Z,102313.09
2023-10-10T01:07:22.554Z,102309.69
2023-10-10T01:10:09.132Z,102306.47
2023-10-10T01:12:40.864Z,102307.56
2023-10-10T01:15:27.743Z,102300.09
2023-10-10T01:17:56.265Z,102296.59
2023-10-10T01:20:35.923Z,102288.16
2023-10-10T01:23:04.210Z,102292.94
2023-10-10T01:25:37.057Z,102290.16
2023-10-10T01:28:29.708Z,102286.66
2023-10-10T01:30:56.638Z,102281.94
2023-10-10T01:33:38.165Z,102279.44
2023-10-10T01:36:13.211Z,102281.75
2023-10-10T01:38:43.029Z,102282.06
2023-10-10T01:41:32.765Z,102284.16
2023-10-10T01:44:13.927Z,102280.38
2023-10-10T01:46:44.533Z,102265.97
2023-10-10T01:49:30.810Z,102274.50
2023-10-10T01:52:00.865Z,102268.78
2023-10-10T01:54:47.363Z,102251.56
2023-10-10T01:57:23.316Z,102247.00
2023-10-10T01:59:53.132Z,102254.91
2023-10-10T02:02:25.019Z,102254.41
2023-10-10T02:04:57.195Z,102246.78
2023-10-10T02:07:33.320Z,102246.91
2023-10-10T02:10:13.737Z,102252.13
2023-10-10T02:12:46.420Z,102253.22
2023-10-10T02:15:20.533Z,102257.94
2023-10-10T02:17:53.399Z,102264.25
2023-10-10T02:20:29.209Z,102258.66
2023-10-10T02:23:03.035Z,102254.84
2023-10-10T02:25:38.607Z,102257.53
2023-10-10T02:28:21.336Z,102253.88
2023-10-10T02:30:53.140Z,102251.78
2023-10-10T02:33:20.405Z,102254.19
2023-10-10T02:35:55.366Z,102241.16
2023-10-10T02:38:56.184Z,102248.88
2023-10-10T02:41:23.694Z,102236.66
2023-10-10T02:44:02.606Z,102233.66
2023-10-10T02:46:38.123Z,102231.38
2023-10-10T02:49:24.177Z,102228.69
2023-10-10T02:51:57.217Z,102220.56
2023-10-10T02:54:29.883Z,102227.25
2023-10-10T02:57:27.434Z,102226.84
2023-10-10T03:00:17.220Z,102223.84
2023-10-10T03:02:52.000Z,102220.91
2023-10-10T03:05:42.156Z,102202.72
2023-10-10T03:08:32.460Z,102215.81
2023-10-10T03:11:02.357Z,102218.41
2023-10-10T03:13:49.075Z,102224.63
2023-10-10T03:16:19.235Z,102220.31
2023-10-10T03:19:15.484Z,102222.41
2023-10-10T03:21:48.607Z,102231.31
2023-10-10T03:24:28.543Z,102226.59
2023-10-10T03:27:21.724Z,102227.25
2023-10-10T03:29:48.962Z,102222.34
2023-10-10T03:32:33.149Z,102219.13
2023-10-10T03:35:07.780Z,102211.66
2023-10-10T03:37:44.515Z,102223.94
2023-10-10T03:40:50.247Z,102209.16
2023-10-10T03:43:36.053Z,102215.22
2023-10-10T03:46:23.055Z,102221.72
2023-10-10T03:49:08.393Z,102212.72
2023-10-10T03:51:53.845Z,102218.13
2023-10-10T03:54:39.346Z,102214.47
2023-10-10T03:57:27.203Z,102218.78
2023-10-10T04:00:13.000Z,102212.88
2023-10-10T04:02:58.370Z,102211.78
2023-10-10T04:05:43.765Z,102215.78
2023-10-10T04:08:29.546Z,102215.59
2023-10-10T04:11:15.131Z,102216.06
2023-10-10T04:14:00.498Z,102216.28
2023-10-10T04:16:46.121Z,102210.88
2023-10-10T04:19:31.689Z,102217.38
2023-10-10T04:22:17.145Z,102214.22
2023-10-10T04:25:03.099Z,102214.06
2023-10-10T04:27:48.633Z,102211.03
2023-10-10T04:30:34.182Z,102208.72
2023-10-10T04:33:19.780Z,102201.22
2023-10-10T04:36:05.081Z,102209.44
2023-10-10T04:38:50.671Z,102212.94
2023-10-10T04:41:36.070Z,102215.22
2023-10-10T04:44:21.973Z,102214.84
2023-10-10T04:47:07.543Z,102210.63
2023-10-10T04:49:52.991Z,102211.72
2023-10-10T04:52:38.527Z,102215.72
2023-10-10T04:55:24.599Z,102204.91
2023-10-10T04:58:10.016Z,102206.81
2023-10-10T05:00:55.438Z,102210.94
2023-10-10T05:03:41.097Z,102206.16
2023-10-10T05:06:26.617Z,102204.78
2023-10-10T05:09:12.433Z,102201.41
2023-10-10T05:11:57.892Z,102203.31
2023-10-10T05:14:43.567Z,102198.22
2023-10-10T05:17:29.161Z,102199.50
2023-10-10T05:20:14.751Z,102185.97
2023-10-10T05:23:00.279Z,102188.19
2023-10-10T05:25:33.033Z,102191.06
2023-10-10T05:28:00.816Z,102195.50
2023-10-10T05:30:28.826Z,102192.84
2023-10-10T05:33:02.714Z,102196.88
2023-10-10T05:35:34.843Z,102198.78
2023-10-10T05:38:02.497Z,102189.66
2023-10-10T05:40:29.857Z,102183.81
2023-10-10T05:42:58.762Z,102171.91
2023-10-10T05:45:26.637Z,102167.13
2023-10-10T05:47:53.667Z,102180.03
2023-10-10T05:50:20.665Z,102174.31
2023-10-10T05:52:47.552Z,102170.00
2023-10-10T05:55:14.942Z,102172.56
2023-10-10T05:57:42.759Z,102176.25
2023-10-10T06:00:17.845Z,102171.66
2023-10-10T06:02:48.881Z,102163.06
2023-10-10T06:05:19.364Z,102168.47
2023-10-10T06:07:46.324Z,102166.38
2023-10-10T06:10:17.578Z,102162.25
2023-10-10T06:12:46.760Z,102158.44
2023-10-10T06:15:20.641Z,102156.38
2023-10-10T06:17:50.190Z,102151.75
2023-10-10T06:20:23.365Z,102156.09
2023-10-10T06:22:50.656Z,102157.69
2023-10-10T06:25:18.938Z,102162.59
2023-10-10T06:27:46.795Z,102163.56
2023-10-10T06:30:19.099Z,102177.91
2023-10-10T06:32:48.957Z,102181.28
2023-10-10T06:35:19.549Z,102179.66
2023-10-10T06:37:52.887Z,102178.25
2023-10-10T06:40:26.895Z,102165.50
2023-10-10T06:43:00.144Z,102165.19
2023-10-10T06:45:36.179Z,102172.53
2023-10-10T06:48:03.268Z,102162.81
2023-10-10T06:50:40.260Z,102165.84
2023-10-10T06:53:07.287Z,102159.75
2023-10-10T06:55:41.262Z,102157.19
2023-10-10T06:58:08.111Z,102157.19
2023-10-10T07:00:46.599Z,102154.19
2023-10-10T07:03:31.688Z,102162.16
2023-10-10T07:05:58.789Z,102161.22
2023-10-10T07:08:28.284Z,102154.66
2023-10-10T07:10:55.172Z,102165.63
2023-10-10T07:13:22.613Z,102165.31
2023-10-10T07:15:55.361Z,102170.25
2023-10-10T07:18:22.737Z,102171.41
2023-10-10T07:21:08.681Z,102167.78
2023-10-10T07:23:42.664Z,102167.31
2023-10-10T07:26:26.252Z,102164.59
2023-10-10T07:28:55.293Z,102166.22
2023-10-10T07:31:25.126Z,102174.00
2023-10-10T07:33:57.555Z,102167.16
2023-10-10T07:36:26.396Z,102149.81
2023-10-10T07:39:17.129Z,102146.31
2023-10-10T07:41:48.020Z,102143.78
2023-10-10T07:44:18.913Z,102154.63
2023-10-10T07:47:06.497Z,102168.63
2023-10-10T07:49:33.635Z,102145.38
2023-10-10T07:52:04.000Z,102146.00
2023-10-10T07:54:40.772Z,102135.72
2023-10-10T07:57:23.747Z,102133.63
2023-10-10T07:59:56.681Z,102140.97
2023-10-10T08:02:33.703Z,102143.56
2023-10-10T08:05:12.568Z,102119.47
2023-10-10T08:07:39.472Z,102123.72
2023-10-10T08:10:31.419Z,102107.56
2023-10-10T08:12:59.255Z,102104.41
2023-10-10T08:15:30.195Z,102096.78
2023-10-10T08:18:00.972Z,102099.47
2023-10-10T08:20:45.304Z,102082.22
2023-10-10T08:23:12.623Z,102080.03
2023-10-10T08:25:39.606Z,102083.38
2023-10-10T08:28:06.696Z,102083.34
2023-10-10T08:30:34.576Z,102075.63
2023-10-10T08:33:03.004Z,102071.25
2023-10-10T08:35:31.586Z,102060.66
2023-10-10T08:37:59.088Z,102053.97
2023-10-10T08:40:35.352Z,102061.22
2023-10-10T08:43:04.786Z,102072.91
2023-10-10T08:45:41.590Z,102078.34
2023-10-10T08:48:14.165Z,102068.88
2023-10-10T08:50:43.156Z,102069.03
2023-10-10T08:53:14.510Z,102074.47
2023-10-10T08:55:42.647Z,102082.94
2023-10-10T08:58:10.230Z,102081.06
2023-10-10T09:00:39.123Z,102074.38
2023-10-10T09:03:10.001Z,102085.81
2023-10-10T09:05:38.099Z,102078.75
2023-10-10T09:08:28.547Z,102079.84
2023-10-10T09:11:00.107Z,102088.94
2023-10-10T09:13:27.342Z,102084.59
2023-10-10T09:15:56.169Z,102085.03
2023-10-10T09:18:24.815Z,102077.91
2023-10-10T09:20:54.694Z,102074.00
2023-10-10T09:23:24.158Z,102081.56
2023-10-10T09:26:11.151Z,102077.16
2023-10-10T09:28:45.393Z,102079.47
2023-10-10T09:31:21.650Z,102070.19
2023-10-10T09:33:51.525Z,102067.91
2023-10-10T09:36:28.169Z,102066.00
2023-10-10T09:39:09.853Z,102056.06
2023-10-10T09:41:37.582Z,102051.97
2023-10-10T09:44:23.209Z,102062.25
2023-10-10T09:47:05.446Z,102065.16
2023-10-10T09:49:53.272Z,102057.94
2023-10-10T09:52:40.774Z,102064.56
2023-10-10T09:55:15.577Z,102072.31
2023-10-10T09:58:02.154Z,102054.34
2023-10-10T10:00:43.714Z,102051.53
2023-10-10T10:03:30.701Z,102051.03
2023-10-10T10:06:49.107Z,102048.38
2023-10-10T10:09:48.138Z,102036.91
2023-10-10T10:12:32.839Z,102033.75
2023-10-10T10:15:21.382Z,102030.34
2023-10-10T10:18:15.308Z,102033.41
2023-10-10T10:20:49.064Z,102026.28
2023-10-10T10:23:26.913Z,102015.66
2023-10-10T10:25:55.831Z,102018.47
2023-10-10T10:28:29.849Z,102010.00
2023-10-10T10:30:57.069Z,102013.16
2023-10-10T10:33:25.383Z,102008.63
2023-10-10T10:35:59.979Z,102005.00
2023-10-10T10:38:27.581Z,101987.16
2023-10-10T10:41:08.713Z,101987.88
2023-10-10T10:43:40.281Z,101984.63
2023-10-10T10:46:15.965Z,101979.41
2023-10-10T10:48:55.555Z,101982.44
2023-10-10T10:51:49.203Z,101974.25
2023-10-10T10:54:37.160Z,101967.50
2023-10-10T10:57:04.850Z,101965.28
2023-10-10T10:59:40.408Z,101950.91
2023-10-10T11:02:17.009Z,101945.16
2023-10-10T11:04:51.746Z,101930.44
2023-10-10T11:07:30.406Z,101926.47
2023-10-10T11:10:08.542Z,101926.56
2023-10-10T11:12:38.573Z,101926.84
2023-10-10T11:15:12.589Z,101920.13
2023-10-10T11:17:40.799Z,101917.28
2023-10-10T11:20:31.286Z,101909.81
2023-10-10T11:23:15.847Z,101909.56
2023-10-10T11:25:46.122Z,101895.06
2023-10-10T11:28:23.578Z,101883.47
2023-10-10T11:30:57.768Z,101893.22
2023-10-10T11:33:50.460Z,101900.59
2023-10-10T11:36:24.039Z,101909.38
2023-10-10T11:38:57.272Z,101899.38
2023-10-10T11:41:30.803Z,101902.28
2023-10-10T11:44:04.169Z,101884.69
2023-10-10T11:46:31.692Z,101883.41
2023-10-10T11:49:01.312Z,101878.22
2023-10-10T11:51:36.793Z,101875.22
2023-10-10T11:54:04.302Z,101886.25
2023-10-10T11:56:36.074Z,101882.75
2023-10-10T11:59:15.468Z,101890.03
2023-10-10T12:01:53.156Z,101889.69
2023-10-10T12:04:39.446Z,101895.84
2023-10-10T12:07:07.745Z,101884.84
2023-10-10T12:09:35.438Z,101881.84
2023-10-10T12:12:05.142Z,101873.75
2023-10-10T12:14:33.579Z,101877.22
2023-10-10T12:17:06.788Z,101873.56
2023-10-10T12:19:38.240Z,101865.25
2023-10-10T12:22:10.146Z,101865.56
2023-10-10T12:24:37.194Z,101852.44
2023-10-10T12:27:08.964Z,101858.91
2023-10-10T12:29:41.637Z,101849.66
2023-10-10T12:32:24.020Z,101851.38
2023-10-10T12:34:51.891Z,101839.06
2023-10-10T12:37:18.834Z,101837.22
2023-10-10T12:39:46.350Z,101832.84
2023-10-10T12:42:13.467Z,101826.13
2023-10-10T12:44:40.382Z,101818.69
2023-10-10T12:47:10.969Z,101830.91
2023-10-10T12:49:46.206Z,101815.06
2023-10-10T12:52:13.742Z,101825.41
2023-10-10T12:54:43.269Z,101824.19
2023-10-10T12:57:14.958Z,101831.41
2023-10-10T12:59:47.907Z,101823.00
2023-10-10T13:02:17.276Z,101821.28
2023-10-10T13:04:48.363Z,101822.75
2023-10-10T13:07:17.821Z,101818.44
2023-10-10T13:09:47.947Z,101817.34
2023-10-10T13:12:28.587Z,101811.59
2023-10-10T13:15:07.224Z,101805.56
2023-10-10T13:17:51.745Z,101817.66
2023-10-10T13:20:20.107Z,101804.78
2023-10-10T13:22:53.117Z,101803.19
2023-10-10T13:25:21.628Z,101807.88
2023-10-10T13:27:49.757Z,101793.31
2023-10-10T13:30:16.636Z,101803.09
2023-10-10T13:32:44.230Z,101790.56
2023-10-10T13:35:11.883Z,101790.41
2023-10-10T13:37:42.610Z,101792.22
2023-10-10T13:40:11.183Z,101795.13
2023-10-10T13:42:41.897Z,101788.25
2023-10-10T13:45:18.320Z,101786.88
2023-10-10T13:47:49.691Z,101781.19
2023-10-10T13:50:42.939Z,101778.38
2023-10-10T13:53:13.550Z,101787.03
2023-10-10T13:55:43.011Z,101777.69
2023-10-10T13:58:13.213Z,101781.06
2023-10-10T14:00:57.349Z,101771.53
2023-10-10T14:03:36.838Z,101783.63
2023-10-10T14:06:05.727Z,101788.97
2023-10-10T14:08:32.892Z,101783.59
2023-10-10T14:11:03.226Z,101773.25
2023-10-10T14:13:31.054Z,101768.88
2023-10-10T14:15:58.136Z,101770.09
2023-10-10T14:18:32.982Z,101769.72
2023-10-10T14:21:09.701Z,101748.59
2023-10-10T14:23:37.227Z,101754.84
2023-10-10T14:26:14.376Z,101755.88
2023-10-10T14:28:52.101Z,101757.38
2023-10-10T14:31:23.718Z,101753.19
2023-10-10T14:33:54.999Z,101736.34
2023-10-10T14:36:22.445Z,101748.94
2023-10-10T14:38:52.734Z,101762.69
2023-10-10T14:41:23.740Z,101748.16
2023-10-10T14:43:55.960Z,101753.25
2023-10-10T14:46:32.679Z,101754.41
2023-10-10T14:49:07.875Z,101742.34
2023-10-10T14:51:36.545Z,101734.16
2023-10-10T14:54:14.658Z,101732.59
2023-10-10T14:56:47.609Z,101717.09
2023-10-10T14:59:19.740Z,101718.25
2023-10-10T15:01:49.436Z,101702.88
2023-10-10T15:04:21.047Z,101696.56
2023-10-10T15:06:49.397Z,101694.78
2023-10-10T15:09:25.144Z,101696.13
2023-10-10T15:12:08.405Z,101704.31
2023-10-10T15:14:35.464Z,101701.50
2023-10-10T15:17:05.744Z,101699.31
2023-10-10T15:19:33.813Z,101700.44
2023-10-10T15:22:00.913Z,101705.47
2023-10-10T15:24:30.055Z,101699.88
2023-10-10T15:26:57.506Z,101692.31
2023-10-10T15:29:27.711Z,101699.97
2023-10-10T15:31:55.750Z,101693.22
2023-10-10T15:34:23.171Z,101688.56
2023-10-10T15:36:50.167Z,101694.44
2023-10-10T15:39:17.274Z,101695.00
2023-10-10T15:41:46.235Z,101683.66
2023-10-10T15:44:17.181Z,101680.06
2023-10-10T15:46:45.161Z,101679.69
2023-10-10T15:51:46.275Z,101689.03
2023-10-10T15:54:16.428Z,101687.81
2023-10-10T15:56:44.275Z,101690.34
2023-10-10T15:59:11.642Z,101684.72
2023-10-10T16:01:39.100Z,101683.06
2023-10-10T16:04:14.144Z,101682.19
2023-10-10T16:06:43.559Z,101687.38
2023-10-10T16:09:11.704Z,101689.28
2023-10-10T16:11:39.854Z,101686.50
2023-10-10T16:14:16.884Z,101681.19
2023-10-10T16:16:47.976Z,101676.78
2023-10-10T16:19:27.932Z,101682.84
2023-10-10T16:21:56.638Z,101679.69
2023-10-10T16:24:29.353Z,101670.38
2023-10-10T16:27:00.878Z,101677.56
2023-10-10T16:29:38.476Z,101675.00
2023-10-10T16:32:08.825Z,101677.88
2023-10-10T16:34:44.037Z,101675.47
2023-10-10T16:37:15.412Z,101676.25
2023-10-10T16:39:47.592Z,101673.91
2023-10-10T16:42:16.223Z,101670.31
2023-10-10T16:44:46.253Z,101673.59
2023-10-10T16:47:18.909Z,101676.91
2023-10-10T16:49:46.498Z,101686.13
2023-10-10T16:52:13.328Z,101679.97
2023-10-10T16:54:42.177Z,101669.47
2023-10-10T16:57:12.536Z,101663.22
2023-10-10T16:59:39.509Z,101668.22
2023-10-10T17:02:07.268Z,101670.81
2023-10-10T17:04:34.883Z,101676.28
2023-10-10T17:07:01.758Z,101677.16
2023-10-10T17:09:29.956Z,101670.03
2023-10-10T17:12:03.861Z,101671.97
2023-10-10T17:14:31.122Z,101672.31
2023-10-10T17:16:58.268Z,101671.88
2023-10-10T17:19:25.266Z,101665.31
2023-10-10T17:21:52.526Z,101664.00
2023-10-10T17:24:21.188Z,101665.94
2023-10-10T17:26:48.553Z,101676.72
2023-10-10T17:29:16.282Z,101680.59
2023-10-10T17:31:43.793Z,101678.78
2023-10-10T17:34:17.324Z,101674.59
2023-10-10T17:36:44.525Z,101671.78
2023-10-10T17:39:16.631Z,101668.00
2023-10-10T17:44:19.630Z,101661.91
2023-10-10T17:46:47.066Z,101664.63
2023-10-10T17:49:15.463Z,101663.72
2023-10-10T17:51:46.090Z,101664.50
2023-10-10T17:54:13.357Z,101654.88
2023-10-10T17:56:40.578Z,101652.63
2023-10-10T17:59:07.635Z,101657.50
2023-10-10T18:01:34.621Z,101653.28
2023-10-10T18:04:04.572Z,101651.81
2023-10-10T18:06:31.606Z,101644.69
2023-10-10T18:09:09.765Z,101652.75
2023-10-10T18:11:38.205Z,101647.19
2023-10-10T18:14:08.781Z,101647.56
2023-10-10T18:16:36.305Z,101640.88
2023-10-10T18:19:04.070Z,101634.91
2023-10-10T18:21:33.494Z,101635.34
2023-10-10T18:24:07.633Z,101636.91
2023-10-10T18:26:39.242Z,101633.31
2023-10-10T18:29:06.727Z,101630.59
2023-10-10T18:31:35.957Z,101636.25
2023-10-10T18:34:06.334Z,101629.47
2023-10-10T18:36:38.937Z,101630.59
2023-10-10T18:39:14.418Z,101628.13
2023-10-10T18:41:43.069Z,101623.03
2023-10-10T18:44:10.933Z,101624.94
2023-10-10T18:46:38.098Z,101630.16
2023-10-10T18:49:07.129Z,101623.94
2023-10-10T18:51:34.359Z,101619.09
2023-10-10T18:54:01.433Z,101618.56
2023-10-10T18:56:28.593Z,101618.00
2023-10-10T18:58:55.634Z,101611.19
2023-10-10T19:01:23.496Z,101601.59
2023-10-10T19:03:50.722Z,101598.75
2023-10-10T19:06:21.649Z,101595.59
2023-10-10T19:08:49.514Z,101594.38
2023-10-10T19:11:25.051Z,101591.09
2023-10-10T19:13:52.072Z,101590.28
2023-10-10T19:16:19.547Z,101595.19
2023-10-10T19:18:47.256Z,101581.28
2023-10-10T19:21:16.963Z,101579.78
2023-10-10T19:23:51.652Z,101578.28
2023-10-10T19:26:18.840Z,101575.47
2023-10-10T19:28:54.822Z,101573.09
2023-10-10T19:31:23.500Z,101568.34
2023-10-10T19:33:50.649Z,101567.13
2023-10-10T19:36:17.765Z,101568.25
2023-10-10T19:38:44.740Z,101563.72
2023-10-10T19:41:15.444Z,101559.31
2023-10-10T19:43:42.601Z,101548.00
2023-10-10T19:46:12.064Z,101549.13
2023-10-10T19:48:43.502Z,101542.47
2023-10-10T19:51:21.384Z,101537.03
2023-10-10T19:53:55.841Z,101525.28
2023-10-10T19:56:22.851Z,101520.19
2023-10-10T19:58:50.296Z,101513.19
2023-10-10T20:01:17.546Z,101517.84
2023-10-10T20:03:47.709Z,101528.66
2023-10-10T20:06:21.939Z,101532.63
2023-10-10T20:08:50.621Z,101521.66
2023-10-10T20:11:17.787Z,101516.22
2023-10-10T20:13:46.660Z,101511.16
2023-10-10T20:16:16.296Z,101505.16
2023-10-10T20:18:47.095Z,101499.63
2023-10-10T20:21:15.058Z,101508.13
2023-10-10T20:23:46.187Z,101504.38
2023-10-10T20:26:20.049Z,101506.75
2023-10-10T20:28:49.567Z,101501.34
2023-10-10T20:31:19.089Z,101496.81
2023-10-10T20:33:49.110Z,101489.81
2023-10-10T20:36:17.275Z,101495.56
2023-10-10T20:38:45.052Z,101498.38
2023-10-10T20:41:13.905Z,101491.72
2023-10-10T20:43:41.944Z,101486.88
2023-10-10T20:46:09.450Z,101494.56
2023-10-10T20:48:36.661Z,101480.09
2023-10-10T20:51:07.469Z,101483.59
2023-10-10T20:53:34.378Z,101486.19
2023-10-10T20:56:03.390Z,101485.84
2023-10-10T20:58:30.551Z,101481.88
2023-10-10T21:00:57.540Z,101469.81
2023-10-10T21:03:28.003Z,101467.09
2023-10-10T21:05:55.167Z,101456.16
2023-10-10T21:08:22.022Z,101447.22
2023-10-10T21:10:51.866Z,101458.84
2023-10-10T21:13:18.741Z,101453.44
2023-10-10T21:15:50.714Z,101453.31
2023-10-10T21:18:20.108Z,101454.00
2023-10-10T21:21:00.817Z,101451.06
2023-10-10T21:23:29.980Z,101440.91
2023-10-10T21:25:56.974Z,101436.03
2023-10-10T21:28:24.114Z,101435.81
2023-10-10T21:30:51.143Z,101422.00
2023-10-10T21:33:18.201Z,101419.63
2023-10-10T21:35:45.856Z,101424.25
2023-10-10T21:38:12.918Z,101417.22
2023-10-10T21:40:41.385Z,101411.44
2023-10-10T21:43:08.325Z,101411.00
2023-10-10T21:45:38.109Z,101405.78
2023-10-10T21:48:06.245Z,101399.75
2023-10-10T21:50:33.572Z,101402.31
2023-10-10T21:53:01.717Z,101383.94
2023-10-10T21:55:29.496Z,101383.50
2023-10-10T21:57:57.154Z,101376.06
2023-10-10T22:00:45.926Z,101386.06
2023-10-10T22:03:15.331Z,101372.31
2023-10-10T22:05:44.338Z,101367.88
2023-10-10T22:08:11.799Z,101356.13
2023-10-10T22:10:43.237Z,101361.66
2023-10-10T22:13:13.030Z,101354.28
2023-10-10T22:15:40.157Z,101343.94
2023-10-10T22:18:07.365Z,101355.75
2023-10-10T22:20:37.700Z,101362.78
2023-10-10T22:23:07.983Z,101352.63
2023-10-10T22:25:38.138Z,101353.84
2023-10-10T22:28:05.819Z,101348.75
2023-10-10T22:30:37.399Z,101355.06
2023-10-10T22:33:05.753Z,101353.47
2023-10-10T22:35:35.327Z,101336.84
2023-10-10T22:38:02.571Z,101345.69
2023-10-10T22:40:29.513Z,101363.22
2023-10-10T22:43:04.493Z,101359.47
2023-10-10T22:45:36.812Z,101354.28
2023-10-10T22:48:08.930Z,101358.28
2023-10-10T22:50:36.471Z,101356.72
2023-10-10T22:53:05.374Z,101347.44
2023-10-10T22:55:36.760Z,101354.44
2023-10-10T22:58:08.045Z,101343.94
2023-10-10T23:00:39.524Z,101350.50
2023-10-10T23:03:11.997Z,101346.00
2023-10-10T23:05:47.458Z,101334.25
2023-10-10T23:08:17.425Z,101341.53
2023-10-10T23:10:45.736Z,101342.81
2023-10-10T23:13:14.438Z,101347.53
2023-10-10T23:15:41.563Z,101337.13
2023-10-10T23:18:12.281Z,101338.84
2023-10-10T23:20:42.853Z,101340.00
2023-10-10T23:23:11.356Z,101325.41
2023-10-10T23:25:38.680Z,101328.91
2023-10-10T23:28:05.880Z,101340.69
2023-10-10T23:30:34.578Z,101323.31
2023-10-10T23:33:01.967Z,101332.56
2023-10-10T23:35:28.926Z,101323.56
2023-10-10T23:38:01.841Z,101329.31
2023-10-10T23:40:42.535Z,101328.84
2023-10-10T23:43:11.050Z,101331.84
2023-10-10T23:45:47.830Z,101344.16
2023-10-10T23:48:18.154Z,101351.03
2023-10-10T23:50:46.388Z,101332.97
2023-10-10T23:53:14.612Z,101342.25
2023-10-10T23:55:42.181Z,101344.75
2023-10-10T23:58:13.325Z,101344.41
